createdAt,value
2023-04-01T00:00:00.180Z,990.31
2023-04-01T00:05:00.108Z,990.31
2023-04-01T00:10:00.114Z,990.31
2023-04-01T00:15:00.152Z,990.31
2023-04-01T00:20:00.132Z,990.31
2023-04-01T00:25:00.107Z,990.31
2023-04-01T00:30:00.146Z,990.31
2023-04-01T00:35:00.110Z,990.31
2023-04-01T00:40:00.138Z,990.31
2023-04-01T00:45:00.143Z,990.31
2023-04-01T00:50:00.134Z,990.31
2023-04-01T00:55:00.123Z,990.31
2023-04-01T01:00:00.228Z,990.31
2023-04-01T01:05:00.136Z,990.31
2023-04-01T01:10:00.104Z,990.31
2023-04-01T01:15:00.136Z,990.31
2023-04-01T01:20:00.145Z,990.31
2023-04-01T01:25:00.118Z,990.31
2023-04-01T01:30:00.121Z,990.31
2023-04-01T01:35:00.132Z,990.31
2023-04-01T01:40:00.120Z,990.31
2023-04-01T01:45:00.121Z,990.31
2023-04-01T01:50:00.140Z,990.31
2023-04-01T01:55:00.120Z,990.31
2023-04-01T02:00:00.099Z,990.31
2023-04-01T02:05:00.224Z,990.31
2023-04-01T02:10:00.097Z,990.31
2023-04-01T02:15:00.127Z,990.31
2023-04-01T02:20:00.149Z,990.31
2023-04-01T02:25:00.170Z,990.31
2023-04-01T02:30:00.112Z,990.31
2023-04-01T02:35:00.115Z,990.31
2023-04-01T02:40:00.118Z,990.31
2023-04-01T02:45:00.083Z,990.31
2023-04-01T02:50:00.132Z,990.31
2023-04-01T02:55:00.124Z,990.31
2023-04-01T03:00:00.093Z,990.31
2023-04-01T03:05:00.125Z,990.31
2023-04-01T03:10:00.122Z,990.31
2023-04-01T03:15:10.595Z,990.31
2023-04-01T03:20:00.092Z,990.31
2023-04-01T03:25:00.133Z,990.31
2023-04-01T03:30:00.229Z,990.31
2023-04-01T03:35:00.127Z,990.31
2023-04-01T03:40:00.107Z,990.31
2023-04-01T03:45:00.115Z,990.31
2023-04-01T03:50:00.128Z,990.31
2023-04-01T03:55:00.152Z,990.31
2023-04-01T04:00:00.152Z,990.31
2023-04-01T04:05:00.106Z,990.31
2023-04-01T04:10:00.102Z,990.31
2023-04-01T04:15:00.130Z,990.31
2023-04-01T04:20:00.116Z,990.31
2023-04-01T04:25:00.123Z,990.31
2023-04-01T04:30:00.145Z,990.31
2023-04-01T04:35:00.131Z,990.31
2023-04-01T04:40:00.109Z,990.31
2023-04-01T04:45:00.129Z,990.31
2023-04-01T04:50:00.114Z,990.31
2023-04-01T04:55:00.141Z,990.31
2023-04-01T05:00:00.188Z,990.31
2023-04-01T05:05:00.139Z,990.31
2023-04-01T05:10:00.122Z,990.31
2023-04-01T05:15:00.141Z,990.31
2023-04-01T05:20:00.113Z,990.31
2023-04-01T05:25:00.103Z,990.31
2023-04-01T05:30:00.153Z,990.31
2023-04-01T05:35:00.149Z,990.31
2023-04-01T05:40:00.138Z,990.31
2023-04-01T05:45:00.201Z,990.31
2023-04-01T05:50:00.191Z,990.31
2023-04-01T05:55:00.142Z,990.31
2023-04-01T06:00:00.149Z,990.31
2023-04-01T06:05:00.129Z,990.31
2023-04-01T06:10:00.165Z,990.31
2023-04-01T06:15:00.196Z,990.31
2023-04-01T06:20:00.098Z,990.31
2023-04-01T06:25:00.138Z,990.31
2023-04-01T06:30:00.176Z,990.31
2023-04-01T06:35:00.139Z,990.31
2023-04-01T06:40:00.145Z,990.31
2023-04-01T06:45:00.444Z,990.31
2023-04-01T06:50:00.148Z,990.31
2023-04-01T06:55:00.148Z,990.31
2023-04-01T07:00:00.123Z,990.31
2023-04-01T07:05:00.116Z,990.31
2023-04-01T07:10:00.152Z,990.31
2023-04-01T07:15:00.141Z,990.31
2023-04-01T07:20:00.107Z,990.31
2023-04-01T07:25:00.097Z,990.31
2023-04-01T07:30:00.134Z,990.31
2023-04-01T07:35:00.149Z,990.31
2023-04-01T07:40:00.140Z,990.31
2023-04-01T07:45:00.113Z,990.31
2023-04-01T07:50:00.124Z,990.31
2023-04-01T07:55:00.149Z,990.31
2023-04-01T08:00:00.166Z,990.31
2023-04-01T08:05:00.152Z,990.31
2023-04-01T08:10:00.143Z,990.31
2023-04-01T08:15:00.666Z,990.31
2023-04-01T08:20:00.118Z,990.31
2023-04-01T08:25:00.122Z,990.31
2023-04-01T08:30:00.116Z,990.31
2023-04-01T08:35:00.133Z,990.31
2023-04-01T08:40:00.120Z,990.31
2023-04-01T08:45:00.086Z,990.31
2023-04-01T08:50:00.146Z,990.31
2023-04-01T08:55:00.172Z,990.31
2023-04-01T09:00:00.120Z,990.31
2023-04-01T09:05:00.102Z,990.31
2023-04-01T09:10:00.135Z,990.31
2023-04-01T09:15:00.136Z,990.31
2023-04-01T09:20:00.117Z,990.31
2023-04-01T09:25:00.116Z,990.31
2023-04-01T09:30:00.140Z,990.31
2023-04-01T09:35:00.162Z,990.31
2023-04-01T09:40:00.152Z,990.31
2023-04-01T09:45:00.126Z,990.31
2023-04-01T09:50:00.142Z,990.31
2023-04-01T09:55:00.150Z,990.31
2023-04-01T10:00:00.123Z,990.31
2023-04-01T10:05:00.151Z,990.31
2023-04-01T10:10:00.174Z,990.31
2023-04-01T10:15:00.139Z,990.31
2023-04-01T10:20:00.121Z,990.31
2023-04-01T10:25:00.131Z,990.31
2023-04-01T10:30:00.175Z,990.31
2023-04-01T10:35:00.124Z,990.31
2023-04-01T10:40:00.137Z,990.31
2023-04-01T10:45:00.103Z,990.31
2023-04-01T10:50:00.136Z,990.31
2023-04-01T10:55:00.157Z,990.31
2023-04-01T11:00:00.155Z,990.31
2023-04-01T11:05:00.119Z,990.31
2023-04-01T11:10:00.119Z,990.31
2023-04-01T11:15:00.122Z,990.31
2023-04-01T11:20:00.103Z,990.31
2023-04-01T11:25:00.120Z,990.31
2023-04-01T21:25:00.213Z,989.05
2023-04-01T21:30:00.173Z,989.13
2023-04-01T21:35:00.145Z,989.25
2023-04-01T21:40:00.146Z,989.37
2023-04-01T21:45:00.174Z,989.54
2023-04-01T21:50:00.114Z,989.54
2023-04-01T21:55:00.111Z,989.59
2023-04-01T22:05:00.200Z,989.7
2023-04-01T22:10:00.130Z,989.81
2023-04-01T22:15:00.174Z,989.92
2023-04-01T22:20:00.130Z,989.96
2023-04-01T22:25:00.154Z,989.99
2023-04-01T22:30:00.186Z,990.11
2023-04-01T22:35:08.413Z,990.1
2023-04-01T22:40:00.186Z,990.24
2023-04-01T22:45:00.133Z,990.31
2023-04-01T22:50:00.171Z,990.42
2023-04-01T22:55:00.120Z,990.53
2023-04-01T23:00:00.156Z,990.55
2023-04-01T23:05:00.363Z,990.55
2023-04-01T23:10:00.172Z,990.67
2023-04-01T23:15:00.148Z,990.89
2023-04-01T23:20:00.172Z,991
2023-04-01T23:25:00.151Z,990.98
2023-04-01T23:30:00.151Z,991.07
2023-04-01T23:35:00.144Z,991.15
2023-04-01T23:40:00.122Z,991.29
2023-04-01T23:45:00.180Z,991.38
2023-04-01T23:50:01.818Z,991.39
2023-04-01T23:55:00.103Z,991.47
